Airfield :
LOGIN :

Register | Disclaimer

   EN    FR    IT 

 










Legend :    VFR   Marginal VFR   IFR   Intensive IFR   Very Intensive IFR
Visi :
Ceiling :
>= 8 km
>= 3000ft
5 to 8 km
1000 to 3000 ft
1500m to 5 km
500 to 1000 ft
800 to 1500m
200 to 500 ft
< 800m
< 200 ft
Symbols :   Thunderstorms  Fog  Heavy snow  Heavy precipitations  Wind > 20 kt
SIGMETs :     Misc.  Thunderstorms  Icing  Turbulence  Mountain Waves  Volcanic Ashes







- Airport Elevation : 1079 ft


ETIK - Illesheim Air Base

CURRENT METAR :
  • 221256Z AUTO 28017G25KT 9999 SCT042 SCT055 BKN070 BKN190 15/06 A3023 RMK AO2 SLP239 T01530055 $

EXPIRED METARs :
  • 221156Z AUTO 28018G22KT 9999 SCT060 BKN120 15/05 A3023 RMK AO2 PK WND 29026/37 RAB19E29 SLP241 P0000 60000 T01460049 10154 20111 50001 $
  • 221129Z AUTO 29017KT 9999 FEW036 SCT047 BKN055 BKN070 14/06 A3023 RMK AO2 RAB19E29 SLP241 $
  • 221119Z AUTO 29019G24KT 9999 -RA SCT036 BKN049 BKN060 14/05 A3024 RMK AO2 RAB19 SLP243 $
  • 221056Z AUTO 28012G20KT 9999 BKN036 BKN047 OVC060 14/06 A3024 RMK AO2 SLP244 T01400059 $

TAF TAF ETIK
Valid from the 22 at 05:00 until the 23 at 11:00 UTC


220502Z 2205/2311 30009KT 9999 SKC QNH3019INS
BECMG 2207/2208 27010G15KT 9999 BKN030 QNH3020INS
BECMG 2210/2211 29015G25KT 8000 -SHRA BKN020 QNH3022INS
BECMG 2217/2218 29012KT 9999 NSW BKN040 QNH3024INS
BECMG 2220/2221 28009KT 9999 BKN030 QNH3025INS
BECMG 2307/2308 30010G15KT 9999 BKN040 QNH3026INS TX17/2214Z TN07/2205Z
No reported NOTAMs for that airfield.



MET'MAP, your aeronautical weather chart ! - Copyright ORBIFLY December 2007 - Disclaimer

ORBIFLY MET'MAP TEAM :

Programming & Development : Alexandra Zaïnal
Concept & Development : Baudouin d'Aumeries
Co-Development & Prog : Marc-Olivier Méhu
Technical & hardware support : Manuel Goepfert

Contact : metmap@orbifly.com




SOURCES & CREDITS :

   NOAA